Hlavní strana
METAR-TAF:

METAR-TAF

Letiště :

Mezinárodní letiště Subháse Čandry Boseho

Kalkata, Indie

zeměpisná šířka: 22-39N, zeměpisná délka: 088-27E, výška: 4 m

Aktuální stav počasí

Zpráva byla vytvořena před 39 minutami, v 22:30 UTC
Severní vítr 4 kt
Teplota 20°C
Vlhkost vzduchu 68%
Tlak 1015 hPa
Viditelnost: 2800 m
Polojasno ve výšce 10000 ft
zákal

METAR: VECC 132230Z 36004KT 2800 HZ SCT100 20/14 Q1015 NOSIG

Čas: 04:39 (23:09 UTC)

Předpověď počasí

Zpráva byla vytvořena před 3 hodinami a 9 minutami, v 20:00 UTC
Předpověď platná od 13 v 21 UTC do 14 v 06 UTC
Severní vítr 5 kt
Viditelnost: 2800 m
Polojasno ve výšce 10000 ft
zákal
Změna
od 14 v 00 UTC do 14 v 02 UTC
Viditelnost: 1500 m
kouřmo
Změna
od 14 v 02 UTC do 14 v 04 UTC
Severoseverovýchodní vítr 5 kt
Viditelnost: 2500 m
zákal

TAF: VECC 132000Z 1321/1406 35005KT 2800 HZ SCT100 BECMG 1400/1402 1500 BR BECMG 1402/1404 02005KT 2500 HZ

Stav a předpovědi počasí z více než 4 000 letišť (zprávy METAR a TAF).

Červené a žluté tečky na mapě představují dostupné meteorologické stanice.

Když kurzor umístíte na tečku, zobrazí se název stanice.

Pak kliknutím zobrazíte stav a předpověď počasí.

Chcete-li změnit mapu, kliknutím na zelené tlačítko se znaménkem +mapu přiblížíte, kliknutím na zelené tlačítko se znaménkem – mapu oddálíte a kliknutím na zelené šipky přejdete na sousední mapy.


METAR-TAF: